createdAt,value
2019-05-29T00:01:10.604Z,13.75
2019-05-29T00:03:37.273Z,15.70
2019-05-29T00:06:06.188Z,20.43
2019-05-29T00:08:35.367Z,20.62
2019-05-29T00:11:03.817Z,20.37
2019-05-29T00:13:32.296Z,19.23
2019-05-29T00:16:01.104Z,17.65
2019-05-29T00:18:29.587Z,18.62
2019-05-29T00:20:58.042Z,21.52
2019-05-29T00:23:26.552Z,19.90
2019-05-29T00:25:55.081Z,20.82
2019-05-29T00:28:23.538Z,19.95
2019-05-29T00:30:52.089Z,19.05
2019-05-29T00:33:20.559Z,18.05
2019-05-29T00:35:49.132Z,20.35
2019-05-29T00:38:17.614Z,18.12
2019-05-29T00:40:46.093Z,16.67
2019-05-29T00:43:15.458Z,23.32
2019-05-29T00:45:44.328Z,16.07
2019-05-29T00:48:13.988Z,18.02
2019-05-29T00:50:42.773Z,22.52
2019-05-29T00:53:12.150Z,23.25
2019-05-29T00:55:41.810Z,19.73
2019-05-29T00:58:10.748Z,21.07
2019-05-29T01:00:39.399Z,20.77
2019-05-29T01:03:07.929Z,24.77
2019-05-29T01:05:36.403Z,22.90
2019-05-29T01:08:05.334Z,23.45
2019-05-29T01:10:33.793Z,18.40
2019-05-29T01:13:02.284Z,19.07
2019-05-29T01:15:30.738Z,22.55
2019-05-29T01:17:59.303Z,27.85
2019-05-29T01:20:28.029Z,56.02
2019-05-29T01:22:56.561Z,22.25
2019-05-29T01:25:25.042Z,26.00
2019-05-29T01:27:53.508Z,25.43
2019-05-29T01:30:23.301Z,25.85
2019-05-29T01:32:52.083Z,20.45
2019-05-29T01:35:20.548Z,23.18
2019-05-29T01:37:49.106Z,20.68
2019-05-29T01:40:22.946Z,24.72
2019-05-29T01:42:49.939Z,23.83
2019-05-29T01:45:18.032Z,22.35
2019-05-29T01:47:46.517Z,22.80
2019-05-29T01:50:15.573Z,25.08
2019-05-29T01:52:46.408Z,22.98
2019-05-29T01:55:15.730Z,25.12
2019-05-29T01:57:44.611Z,27.70
2019-05-29T02:00:15.714Z,26.42
2019-05-29T02:02:44.478Z,23.98
2019-05-29T02:05:13.187Z,24.60
2019-05-29T02:07:41.975Z,23.73
2019-05-29T02:10:10.576Z,30.50
2019-05-29T02:12:39.130Z,27.20
2019-05-29T02:15:23.078Z,31.77
2019-05-29T02:17:40.296Z,28.73
2019-05-29T02:20:09.524Z,29.65
2019-05-29T02:22:38.119Z,27.70
2019-05-29T02:25:10.408Z,30.70
2019-05-29T02:27:38.879Z,31.95
2019-05-29T02:30:08.484Z,27.40
2019-05-29T02:32:37.407Z,26.80
2019-05-29T02:35:06.917Z,25.10
2019-05-29T02:37:35.471Z,25.77
2019-05-29T02:40:07.008Z,24.92
2019-05-29T02:42:36.161Z,23.80
2019-05-29T02:45:08.099Z,24.50
2019-05-29T02:47:36.710Z,23.18
2019-05-29T02:50:07.920Z,22.30
2019-05-29T02:52:36.377Z,24.55
2019-05-29T02:55:07.692Z,21.45
2019-05-29T02:57:36.232Z,24.55
2019-05-29T03:00:06.745Z,22.40
2019-05-29T03:02:35.228Z,30.08
2019-05-29T03:05:05.925Z,31.60
2019-05-29T03:07:35.129Z,23.92
2019-05-29T03:10:08.437Z,28.25
2019-05-29T03:12:37.716Z,25.27
2019-05-29T03:15:06.917Z,24.20
2019-05-29T03:17:35.385Z,30.15
2019-05-29T03:20:08.445Z,24.20
2019-05-29T03:22:37.203Z,25.00
2019-05-29T03:25:07.309Z,23.47
2019-05-29T03:27:35.990Z,25.30
2019-05-29T03:30:06.482Z,21.62
2019-05-29T03:32:45.650Z,22.02
2019-05-29T03:35:06.750Z,27.30
2019-05-29T03:37:35.245Z,24.35
2019-05-29T03:40:08.999Z,25.25
2019-05-29T03:42:38.979Z,25.88
2019-05-29T03:45:08.268Z,27.67
2019-05-29T03:47:37.239Z,25.00
2019-05-29T03:50:07.444Z,22.35
2019-05-29T03:52:36.001Z,20.37
2019-05-29T03:55:06.970Z,22.15
2019-05-29T03:57:35.870Z,18.92
2019-05-29T04:00:08.075Z,19.50
2019-05-29T04:02:38.222Z,23.15
2019-05-29T04:05:07.285Z,21.12
2019-05-29T04:07:37.776Z,22.65
2019-05-29T04:10:08.010Z,23.77
2019-05-29T04:12:38.052Z,23.55
2019-05-29T04:15:07.583Z,22.00
2019-05-29T04:17:38.373Z,24.70
2019-05-29T04:20:07.433Z,28.30
2019-05-29T04:22:39.074Z,22.62
2019-05-29T04:25:08.340Z,22.77
2019-05-29T04:27:39.805Z,23.25
2019-05-29T04:30:09.242Z,21.82
2019-05-29T04:32:38.601Z,23.70
2019-05-29T04:35:09.168Z,22.85
2019-05-29T04:37:39.910Z,23.50
2019-05-29T04:40:08.754Z,26.80
2019-05-29T04:42:38.160Z,21.25
2019-05-29T04:45:09.210Z,24.92
2019-05-29T04:47:39.321Z,24.37
2019-05-29T04:50:08.622Z,26.30
2019-05-29T04:52:37.900Z,21.25
2019-05-29T04:55:08.048Z,20.80
2019-05-29T04:57:37.225Z,19.87
2019-05-29T05:00:07.212Z,20.27
2019-05-29T05:02:35.729Z,18.07
2019-05-29T05:05:07.850Z,17.77
2019-05-29T05:07:37.344Z,16.40
2019-05-29T05:10:07.606Z,15.50
2019-05-29T05:12:37.863Z,15.53
2019-05-29T05:15:07.672Z,18.52
2019-05-29T05:17:36.196Z,17.95
2019-05-29T05:20:05.977Z,14.85
2019-05-29T05:22:34.589Z,14.38
2019-05-29T05:25:03.798Z,15.70
2019-05-29T05:27:32.290Z,15.35
2019-05-29T05:30:00.769Z,14.47
2019-05-29T05:32:30.495Z,14.70
2019-05-29T05:34:59.152Z,13.25
2019-05-29T05:37:27.653Z,11.43
2019-05-29T05:39:56.142Z,11.35
2019-05-29T05:42:24.876Z,11.65
2019-05-29T05:44:53.429Z,9.78
2019-05-29T05:47:21.941Z,11.68
2019-05-29T05:49:50.419Z,10.25
2019-05-29T05:52:18.900Z,9.60
2019-05-29T05:54:47.434Z,11.93
2019-05-29T05:57:15.926Z,10.50
2019-05-29T05:59:44.411Z,11.22
2019-05-29T06:02:12.962Z,12.90
2019-05-29T06:04:42.128Z,12.82
2019-05-29T06:07:10.767Z,12.37
2019-05-29T06:09:40.434Z,14.60
2019-05-29T06:12:08.963Z,10.90
2019-05-29T06:14:38.466Z,10.43
2019-05-29T06:17:07.209Z,12.20
2019-05-29T06:19:36.729Z,11.97
2019-05-29T06:22:05.854Z,12.05
2019-05-29T06:24:34.981Z,13.13
2019-05-29T06:27:03.878Z,11.18
2019-05-29T06:29:33.514Z,11.05
2019-05-29T06:32:02.375Z,12.35
2019-05-29T06:34:30.932Z,16.80
2019-05-29T06:36:59.500Z,13.35
2019-05-29T06:39:27.965Z,11.50
2019-05-29T06:41:56.461Z,12.13
2019-05-29T06:44:25.333Z,14.65
2019-05-29T06:46:56.936Z,13.32
2019-05-29T06:49:27.339Z,13.58
2019-05-29T06:51:55.817Z,13.18
2019-05-29T06:54:24.311Z,14.58
2019-05-29T06:56:52.830Z,13.03
2019-05-29T06:59:21.589Z,12.55
2019-05-29T07:01:50.128Z,13.40
2019-05-29T07:04:18.605Z,13.15
2019-05-29T07:06:47.099Z,11.57
2019-05-29T07:09:15.814Z,11.93
2019-05-29T07:11:45.416Z,12.18
2019-05-29T07:14:14.050Z,11.78
2019-05-29T07:16:49.820Z,13.98
2019-05-29T07:19:47.097Z,12.47
2019-05-29T07:21:43.407Z,14.28
2019-05-29T07:24:13.194Z,13.60
2019-05-29T07:26:43.082Z,15.05
2019-05-29T07:29:11.960Z,13.40
2019-05-29T07:31:42.934Z,13.78
2019-05-29T07:34:11.541Z,12.23
2019-05-29T07:36:40.072Z,13.62
2019-05-29T07:39:08.589Z,15.65
2019-05-29T07:41:37.442Z,12.95
2019-05-29T07:44:06.282Z,11.78
2019-05-29T07:46:35.026Z,12.65
2019-05-29T07:49:03.915Z,14.35
2019-05-29T07:51:32.726Z,12.10
2019-05-29T07:54:01.185Z,13.72
2019-05-29T07:56:31.493Z,13.13
2019-05-29T07:59:02.944Z,9.33
2019-05-29T08:01:30.630Z,12.85
2019-05-29T08:03:59.376Z,11.38
2019-05-29T08:06:27.971Z,17.57
2019-05-29T08:08:56.549Z,11.15
2019-05-29T08:11:25.140Z,13.95
2019-05-29T08:13:53.771Z,13.85
2019-05-29T08:16:24.456Z,11.35
2019-05-29T08:18:53.275Z,10.50
2019-05-29T08:21:21.986Z,10.00
2019-05-29T08:23:50.839Z,8.58
2019-05-29T08:26:19.594Z,10.20
2019-05-29T08:28:48.917Z,8.03
2019-05-29T08:31:17.965Z,11.60
2019-05-29T08:33:46.814Z,11.97
2019-05-29T08:36:15.437Z,11.73
2019-05-29T08:38:45.735Z,8.80
2019-05-29T08:41:14.577Z,11.50
2019-05-29T08:43:44.811Z,12.90
2019-05-29T08:46:13.340Z,17.02
2019-05-29T08:48:41.895Z,12.25
2019-05-29T08:51:10.454Z,16.57
2019-05-29T08:53:38.927Z,13.08
2019-05-29T08:56:07.750Z,16.07
2019-05-29T08:58:37.386Z,16.62
2019-05-29T09:01:06.511Z,14.53
2019-05-29T09:03:35.386Z,17.50
2019-05-29T09:06:08.937Z,19.25
2019-05-29T09:08:34.213Z,21.23
2019-05-29T09:11:02.846Z,21.05
2019-05-29T09:13:31.759Z,19.73
2019-05-29T09:16:00.245Z,22.07
2019-05-29T09:18:28.726Z,19.05
2019-05-29T09:21:03.188Z,20.05
2019-05-29T09:23:27.532Z,18.10
2019-05-29T09:26:13.236Z,17.90
2019-05-29T09:28:25.146Z,18.07
2019-05-29T09:30:53.680Z,18.77
2019-05-29T09:33:23.537Z,13.58
2019-05-29T09:35:52.449Z,12.60
2019-05-29T09:38:21.025Z,13.80
2019-05-29T09:40:52.577Z,13.20
2019-05-29T09:43:19.912Z,14.10
2019-05-29T09:45:50.735Z,16.73
2019-05-29T09:48:23.403Z,15.65
2019-05-29T09:50:50.855Z,14.93
2019-05-29T09:53:19.597Z,12.40
2019-05-29T09:55:48.088Z,11.65
2019-05-29T09:58:16.634Z,9.93
2019-05-29T10:00:45.912Z,10.40
2019-05-29T10:03:14.373Z,10.48
2019-05-29T10:05:43.137Z,10.15
2019-05-29T10:08:11.658Z,9.55
2019-05-29T10:10:40.162Z,11.95
2019-05-29T10:13:08.690Z,10.20
2019-05-29T10:15:37.223Z,10.68
2019-05-29T10:18:10.006Z,9.18
2019-05-29T10:20:36.224Z,8.70
2019-05-29T10:23:05.201Z,11.22
2019-05-29T10:25:33.742Z,7.47
2019-05-29T10:28:05.838Z,6.40
2019-05-29T10:30:32.499Z,8.43
2019-05-29T10:33:01.024Z,12.35
2019-05-29T10:35:29.588Z,11.22
2019-05-29T10:37:58.128Z,11.73
2019-05-29T10:40:26.591Z,11.75
2019-05-29T10:42:55.118Z,12.90
2019-05-29T10:45:23.742Z,14.50
2019-05-29T10:47:52.453Z,15.08
2019-05-29T10:50:23.698Z,15.48
2019-05-29T10:52:52.253Z,14.15
2019-05-29T10:55:22.995Z,15.55
2019-05-29T10:57:53.120Z,14.35
2019-05-29T11:00:22.388Z,14.83
2019-05-29T11:02:53.475Z,13.90
2019-05-29T11:05:21.170Z,13.80
2019-05-29T11:07:49.749Z,11.60
2019-05-29T11:10:18.462Z,10.85
2019-05-29T11:12:48.309Z,8.73
2019-05-29T11:15:21.760Z,11.63
2019-05-29T11:17:49.172Z,11.03
2019-05-29T11:20:19.428Z,9.90
2019-05-29T11:22:47.908Z,13.38
2019-05-29T11:25:23.593Z,13.48
2019-05-29T11:27:48.414Z,14.83
2019-05-29T11:30:17.440Z,11.25
2019-05-29T11:32:47.673Z,11.95
2019-05-29T11:35:16.695Z,10.95
2019-05-29T11:37:45.175Z,11.12
2019-05-29T11:40:14.182Z,11.83
2019-05-29T11:42:42.655Z,11.75
2019-05-29T11:45:12.279Z,10.80
2019-05-29T11:47:40.838Z,12.35
2019-05-29T11:50:19.346Z,12.53
2019-05-29T11:52:43.852Z,11.95
2019-05-29T11:55:14.445Z,13.62
2019-05-29T11:57:43.032Z,9.03
2019-05-29T12:00:20.308Z,12.25
2019-05-29T12:02:45.218Z,9.50
2019-05-29T12:05:15.543Z,12.18
2019-05-29T12:07:44.151Z,12.75
2019-05-29T12:10:17.197Z,10.15
2019-05-29T12:15:17.921Z,11.97
2019-05-29T12:17:45.421Z,8.85
2019-05-29T12:20:27.017Z,8.15
2019-05-29T12:23:11.143Z,9.15
2019-05-29T12:25:15.190Z,8.00
2019-05-29T12:27:52.610Z,8.68
2019-05-29T12:30:19.099Z,8.68
2019-05-29T12:32:47.633Z,7.95
2019-05-29T12:35:16.355Z,10.03
2019-05-29T12:37:44.843Z,7.50
2019-05-29T12:40:13.716Z,9.63
2019-05-29T12:42:44.935Z,7.90
2019-05-29T12:45:14.504Z,7.53
2019-05-29T12:47:43.090Z,8.20
2019-05-29T12:50:13.130Z,7.83
2019-05-29T12:52:42.300Z,7.47
2019-05-29T12:55:12.407Z,9.43
2019-05-29T12:57:40.932Z,8.00
2019-05-29T13:00:11.656Z,8.13
2019-05-29T13:02:42.428Z,8.65
2019-05-29T13:05:19.319Z,9.13
2019-05-29T13:07:45.161Z,5.83
2019-05-29T13:10:29.424Z,7.35
2019-05-29T13:12:45.588Z,7.03
2019-05-29T13:15:15.665Z,9.65
2019-05-29T13:17:44.437Z,7.33
2019-05-29T13:20:21.818Z,8.35
2019-05-29T13:22:45.630Z,7.08
2019-05-29T13:25:14.592Z,6.25
2019-05-29T13:27:43.224Z,7.15
2019-05-29T13:30:14.147Z,9.60
2019-05-29T13:32:44.325Z,8.40
2019-05-29T13:35:14.175Z,8.18
2019-05-29T13:37:43.849Z,9.35
2019-05-29T13:40:14.170Z,10.82
2019-05-29T13:42:44.292Z,8.45
2019-05-29T13:45:18.110Z,7.97
2019-05-29T13:47:46.870Z,7.53
2019-05-29T13:50:18.178Z,5.85
2019-05-29T13:52:48.330Z,8.40
2019-05-29T13:55:17.250Z,7.67
2019-05-29T13:57:46.982Z,6.22
2019-05-29T14:00:32.619Z,6.92
2019-05-29T14:02:48.162Z,7.90
2019-05-29T14:05:18.031Z,5.20
2019-05-29T14:07:47.851Z,5.83
2019-05-29T14:10:21.114Z,6.42
2019-05-29T14:59:26.376Z,5.28
2019-05-29T15:01:59.739Z,2.62
2019-05-29T15:04:28.351Z,3.10
2019-05-29T15:06:56.954Z,3.10
2019-05-29T15:09:25.489Z,4.10
2019-05-29T15:11:54.115Z,2.90
2019-05-29T15:14:22.777Z,6.85
2019-05-29T15:16:51.736Z,4.20
2019-05-29T15:19:20.289Z,5.00
2019-05-29T15:21:48.906Z,4.40
2019-05-29T15:24:17.568Z,5.05
2019-05-29T15:26:46.477Z,4.85
2019-05-29T15:29:17.924Z,5.53
2019-05-29T15:31:45.444Z,4.65
2019-05-29T15:34:14.447Z,3.67
2019-05-29T15:36:43.279Z,7.45
2019-05-29T15:39:14.501Z,3.27
2019-05-29T15:41:43.322Z,2.58
2019-05-29T15:44:12.808Z,3.40
2019-05-29T15:46:41.464Z,3.37
2019-05-29T15:49:13.088Z,4.10
2019-05-29T15:51:41.755Z,4.40
2019-05-29T15:54:11.170Z,4.83
2019-05-29T15:56:40.159Z,3.22
2019-05-29T15:59:09.959Z,3.58
2019-05-29T16:01:39.264Z,3.20
2019-05-29T16:04:09.508Z,3.42
2019-05-29T16:06:43.639Z,3.05
2019-05-29T16:09:14.337Z,4.05
2019-05-29T16:11:43.108Z,2.52
2019-05-29T16:14:12.907Z,3.85
2019-05-29T16:16:41.531Z,4.20
2019-05-29T16:19:10.102Z,3.33
2019-05-29T16:21:38.704Z,3.72
2019-05-29T16:24:07.362Z,5.62
2019-05-29T16:27:07.971Z,4.25
2019-05-29T16:29:10.452Z,3.37
2019-05-29T16:31:41.944Z,2.87
2019-05-29T16:34:12.192Z,3.22
2019-05-29T16:36:40.926Z,3.37
2019-05-29T16:39:09.545Z,4.87
2019-05-29T16:41:38.501Z,2.58
2019-05-29T16:44:07.199Z,2.60
2019-05-29T16:46:35.691Z,3.05
2019-05-29T16:49:04.520Z,2.77
2019-05-29T16:51:33.072Z,2.98
2019-05-29T16:54:01.645Z,3.92
2019-05-29T16:56:30.133Z,3.55
2019-05-29T16:58:58.791Z,3.10
2019-05-29T17:01:27.524Z,4.30
2019-05-29T17:03:56.311Z,3.27
2019-05-29T17:06:24.869Z,3.33
2019-05-29T17:08:53.486Z,3.55
2019-05-29T17:11:23.539Z,3.60
2019-05-29T17:13:52.515Z,2.72
2019-05-29T17:16:22.723Z,2.83
2019-05-29T17:18:51.446Z,4.78
2019-05-29T17:21:22.784Z,3.20
2019-05-29T17:23:50.518Z,4.12
2019-05-29T17:26:20.837Z,7.08
2019-05-29T17:28:49.613Z,3.58
2019-05-29T17:31:20.881Z,5.05
2019-05-29T17:33:48.616Z,2.90
2019-05-29T17:36:17.424Z,4.87
2019-05-29T17:38:46.090Z,4.40
2019-05-29T17:41:15.274Z,3.47
2019-05-29T17:43:43.840Z,4.15
2019-05-29T17:46:15.303Z,4.87
2019-05-29T17:48:44.047Z,5.03
2019-05-29T17:51:12.621Z,4.58
2019-05-29T17:53:41.198Z,3.02
2019-05-29T17:56:23.325Z,4.97
2019-05-29T17:58:40.275Z,6.92
2019-05-29T18:01:08.899Z,4.75
2019-05-29T18:03:37.423Z,5.67
2019-05-29T18:06:06.163Z,4.53
2019-05-29T18:08:37.623Z,4.75
2019-05-29T18:11:06.244Z,4.72
2019-05-29T18:13:34.782Z,5.30
2019-05-29T18:16:03.306Z,5.50
2019-05-29T18:18:31.829Z,5.20
2019-05-29T18:21:00.407Z,5.92
2019-05-29T18:23:29.234Z,3.62
2019-05-29T18:25:57.799Z,4.90
2019-05-29T18:28:26.273Z,4.37
2019-05-29T18:30:55.131Z,4.17
2019-05-29T18:33:24.935Z,5.40
2019-05-29T18:35:53.670Z,6.55
2019-05-29T18:38:22.422Z,5.75
2019-05-29T18:40:51.019Z,3.90
2019-05-29T18:43:20.373Z,6.22
2019-05-29T18:45:49.024Z,6.17
2019-05-29T18:48:17.906Z,7.85
2019-05-29T18:50:46.662Z,4.70
2019-05-29T18:53:16.952Z,6.17
2019-05-29T18:55:45.638Z,5.30
2019-05-29T18:58:16.726Z,6.45
2019-05-29T19:00:47.177Z,6.10
2019-05-29T19:03:23.335Z,5.33
2019-05-29T19:05:56.265Z,6.15
2019-05-29T19:08:25.748Z,7.78
2019-05-29T19:10:57.192Z,7.08
2019-05-29T19:13:28.000Z,5.65
2019-05-29T19:15:58.210Z,8.00
2019-05-29T19:18:33.755Z,5.65
2019-05-29T19:20:59.239Z,8.85
2019-05-29T19:23:28.768Z,5.80
2019-05-29T19:25:57.414Z,5.20
2019-05-29T19:28:26.525Z,5.65
2019-05-29T19:30:55.467Z,5.42
2019-05-29T19:33:25.162Z,6.75
2019-05-29T19:35:53.843Z,5.45
2019-05-29T19:38:23.657Z,3.72
2019-05-29T19:40:52.612Z,6.37
2019-05-29T19:43:21.209Z,4.00
2019-05-29T19:45:49.700Z,5.12
2019-05-29T19:48:18.295Z,5.47
2019-05-29T19:50:48.685Z,5.62
2019-05-29T19:53:17.285Z,5.35
2019-05-29T19:55:45.945Z,6.97
2019-05-29T19:58:17.676Z,6.53
2019-05-29T20:00:46.217Z,6.58
2019-05-29T20:03:14.800Z,5.05
2019-05-29T20:05:43.512Z,8.28
2019-05-29T20:08:12.146Z,7.25
2019-05-29T20:10:40.719Z,7.33
2019-05-29T20:13:09.405Z,7.45
2019-05-29T20:15:38.145Z,5.08
2019-05-29T20:18:09.247Z,6.25
2019-05-29T20:20:38.729Z,7.25
2019-05-29T20:23:09.004Z,6.42
2019-05-29T20:25:39.043Z,8.18
2019-05-29T20:28:11.642Z,6.22
2019-05-29T20:30:38.731Z,5.40
2019-05-29T20:33:09.341Z,7.97
2019-05-29T20:35:40.559Z,6.12
2019-05-29T20:38:09.110Z,7.03
2019-05-29T20:40:37.742Z,5.30
2019-05-29T20:43:08.542Z,5.08
2019-05-29T20:45:37.634Z,5.10
2019-05-29T20:48:10.094Z,6.67
2019-05-29T20:50:39.127Z,6.15
2019-05-29T20:53:07.790Z,5.78
2019-05-29T20:55:36.268Z,6.47
2019-05-29T20:58:23.188Z,7.15
2019-05-29T21:00:44.267Z,6.50
2019-05-29T21:03:15.534Z,5.62
2019-05-29T21:05:44.020Z,5.20
2019-05-29T21:08:12.544Z,7.55
2019-05-29T21:10:42.019Z,5.58
2019-05-29T21:13:10.962Z,8.15
2019-05-29T21:15:43.753Z,7.83
2019-05-29T21:18:12.356Z,4.83
2019-05-29T21:20:42.523Z,4.67
2019-05-29T21:23:11.286Z,5.95
2019-05-29T21:25:40.714Z,7.60
2019-05-29T21:28:09.347Z,4.90
2019-05-29T21:30:37.899Z,6.58
2019-05-29T21:33:16.100Z,7.60
2019-05-29T21:35:44.656Z,7.95
2019-05-29T21:38:13.212Z,5.30
2019-05-29T21:40:44.550Z,7.30
2019-05-29T21:43:12.016Z,6.87
2019-05-29T21:45:41.045Z,5.08
2019-05-29T21:48:09.697Z,4.30
2019-05-29T21:50:39.107Z,7.65
2019-05-29T21:53:07.967Z,5.10
2019-05-29T21:55:39.511Z,5.12
2019-05-29T21:58:10.277Z,7.10
2019-05-29T22:00:49.131Z,6.90
2019-05-29T22:03:17.658Z,6.72
2019-05-29T22:05:46.814Z,5.50
2019-05-29T22:08:15.530Z,4.78
2019-05-29T22:10:44.522Z,4.40
2019-05-29T22:13:13.511Z,6.10
2019-05-29T22:15:42.073Z,6.58
2019-05-29T22:18:10.623Z,4.95
2019-05-29T22:20:39.346Z,6.67
2019-05-29T22:23:07.828Z,7.40
2019-05-29T22:28:15.727Z,5.70
2019-05-29T22:30:44.314Z,7.00
2019-05-29T22:33:12.780Z,6.28
2019-05-29T22:35:41.367Z,5.58
2019-05-29T22:38:09.951Z,4.33
2019-05-29T22:40:38.536Z,8.75
2019-05-29T22:43:07.424Z,4.12
2019-05-29T22:45:36.317Z,5.05
2019-05-29T22:48:04.975Z,4.10
2019-05-29T22:50:33.550Z,6.97
2019-05-29T22:53:02.197Z,4.17
2019-05-29T22:55:32.530Z,4.35
2019-05-29T22:58:02.114Z,5.45
2019-05-29T23:00:30.887Z,6.10
2019-05-29T23:03:00.190Z,5.42
2019-05-29T23:05:28.840Z,4.22
2019-05-29T23:07:58.234Z,4.83
2019-05-29T23:10:27.060Z,4.87
2019-05-29T23:12:56.392Z,4.15
2019-05-29T23:15:24.931Z,5.55
2019-05-29T23:17:54.534Z,5.53
2019-05-29T23:20:23.209Z,6.33
2019-05-29T23:22:52.594Z,6.28
2019-05-29T23:25:21.287Z,5.55
2019-05-29T23:27:49.780Z,7.80
2019-05-29T23:30:18.430Z,6.75
2019-05-29T23:32:46.989Z,6.10
2019-05-29T23:35:15.921Z,8.78
2019-05-29T23:37:44.428Z,6.50
2019-05-29T23:40:13.089Z,7.70
2019-05-29T23:42:41.578Z,7.90
2019-05-29T23:45:11.044Z,6.47
2019-05-29T23:47:39.599Z,6.72
2019-05-29T23:50:09.407Z,6.83
2019-05-29T23:52:38.329Z,9.55
2019-05-29T23:55:10.375Z,6.35
2019-05-29T23:57:39.027Z,7.10
